createdAt,value
2017-08-10T00:01:13.225Z,4.30
2017-08-10T00:03:41.484Z,4.27
2017-08-10T00:06:09.771Z,4.17
2017-08-10T00:08:38.046Z,4.27
2017-08-10T00:11:06.445Z,3.83
2017-08-10T00:13:34.701Z,3.73
2017-08-10T00:16:02.976Z,4.00
2017-08-10T00:18:31.267Z,4.17
2017-08-10T00:20:59.512Z,4.30
2017-08-10T00:23:27.930Z,4.23
2017-08-10T00:25:56.183Z,4.83
2017-08-10T00:28:24.488Z,4.67
2017-08-10T00:30:52.775Z,4.37
2017-08-10T00:33:21.147Z,4.40
2017-08-10T00:35:49.484Z,4.83
2017-08-10T00:38:17.778Z,4.63
2017-08-10T00:40:46.035Z,4.73
2017-08-10T00:43:14.346Z,4.97
2017-08-10T00:45:42.625Z,4.67
2017-08-10T00:48:10.913Z,5.53
2017-08-10T00:50:39.282Z,4.60
2017-08-10T00:53:07.589Z,4.90
2017-08-10T00:55:37.365Z,4.90
2017-08-10T00:58:05.621Z,3.97
2017-08-10T01:00:33.909Z,4.47
2017-08-10T01:03:02.201Z,4.40
2017-08-10T01:05:30.565Z,4.90
2017-08-10T01:07:58.838Z,4.00
2017-08-10T01:10:27.212Z,4.20
2017-08-10T01:12:55.511Z,5.10
2017-08-10T01:15:23.780Z,4.40
2017-08-10T01:17:52.052Z,5.30
2017-08-10T01:20:20.430Z,4.57
2017-08-10T01:22:48.686Z,4.57
2017-08-10T01:25:16.993Z,4.87
2017-08-10T01:27:45.275Z,4.30
2017-08-10T01:30:13.655Z,4.50
2017-08-10T01:32:42.022Z,5.17
2017-08-10T01:35:10.399Z,5.50
2017-08-10T01:37:38.693Z,5.60
2017-08-10T01:40:06.954Z,4.80
2017-08-10T01:42:35.342Z,5.20
2017-08-10T01:45:03.603Z,5.40
2017-08-10T01:47:31.928Z,6.10
2017-08-10T01:50:00.261Z,6.60
2017-08-10T01:52:28.582Z,5.27
2017-08-10T01:54:57.635Z,6.10
2017-08-10T01:57:25.901Z,6.30
2017-08-10T01:59:54.193Z,5.90
2017-08-10T02:02:22.478Z,5.97
2017-08-10T02:04:50.763Z,6.13
2017-08-10T02:07:19.142Z,6.23
2017-08-10T02:09:47.506Z,6.43
2017-08-10T02:12:15.801Z,6.47
2017-08-10T02:14:44.850Z,6.77
2017-08-10T02:17:13.125Z,7.73
2017-08-10T02:19:41.421Z,7.90
2017-08-10T02:22:09.720Z,6.93
2017-08-10T02:24:37.993Z,6.57
2017-08-10T02:27:06.369Z,6.77
2017-08-10T02:29:34.787Z,6.90
2017-08-10T02:32:03.822Z,8.80
2017-08-10T02:34:32.134Z,7.90
2017-08-10T02:37:00.404Z,8.20
2017-08-10T02:39:28.773Z,8.07
2017-08-10T02:41:57.058Z,8.10
2017-08-10T02:44:25.450Z,8.23
2017-08-10T02:46:53.721Z,8.70
2017-08-10T02:49:22.088Z,8.60
2017-08-10T02:51:50.351Z,8.97
2017-08-10T02:54:18.716Z,9.43
2017-08-10T02:56:48.041Z,8.93
2017-08-10T02:59:17.540Z,9.00
2017-08-10T03:01:45.817Z,9.77
2017-08-10T03:04:14.081Z,9.07
2017-08-10T03:06:42.461Z,9.57
2017-08-10T03:09:10.717Z,9.00
2017-08-10T03:11:39.118Z,9.17
2017-08-10T03:14:07.368Z,9.30
2017-08-10T03:16:35.871Z,9.63
2017-08-10T03:19:04.150Z,10.00
2017-08-10T03:21:32.448Z,9.03
2017-08-10T03:24:01.512Z,10.20
2017-08-10T03:26:29.913Z,9.60
2017-08-10T03:28:58.281Z,9.23
2017-08-10T03:31:26.671Z,9.60
2017-08-10T03:33:54.937Z,10.00
2017-08-10T03:36:23.241Z,10.07
2017-08-10T03:38:51.514Z,9.93
2017-08-10T03:41:19.785Z,9.87
2017-08-10T03:43:48.076Z,8.73
2017-08-10T03:46:16.345Z,10.27
2017-08-10T03:48:44.637Z,9.20
2017-08-10T03:51:12.936Z,9.50
2017-08-10T03:53:41.326Z,7.83
2017-08-10T03:56:09.610Z,9.43
2017-08-10T03:58:37.914Z,8.60
2017-08-10T04:01:06.178Z,9.80
2017-08-10T04:03:34.489Z,9.50
2017-08-10T04:06:02.866Z,10.37
2017-08-10T04:08:31.147Z,9.83
2017-08-10T04:10:59.528Z,10.70
2017-08-10T04:13:27.823Z,9.50
2017-08-10T04:15:56.858Z,9.53
2017-08-10T04:18:25.158Z,8.80
2017-08-10T04:20:53.419Z,11.20
2017-08-10T04:23:21.733Z,10.03
2017-08-10T04:25:50.049Z,10.87
2017-08-10T04:28:18.301Z,9.53
2017-08-10T04:30:47.443Z,10.13
2017-08-10T04:33:15.714Z,10.73
2017-08-10T04:35:44.026Z,10.17
2017-08-10T04:38:12.298Z,10.57
2017-08-10T04:40:40.732Z,9.40
2017-08-10T04:43:09.061Z,9.53
2017-08-10T04:45:37.429Z,10.27
2017-08-10T04:48:05.747Z,10.07
2017-08-10T04:50:34.800Z,10.80
2017-08-10T04:53:03.079Z,9.77
2017-08-10T04:55:31.460Z,9.77
2017-08-10T04:57:59.724Z,9.77
2017-08-10T05:00:27.997Z,9.00
2017-08-10T05:02:56.277Z,8.77
2017-08-10T05:05:24.551Z,9.20
2017-08-10T05:07:52.868Z,9.93
2017-08-10T05:10:21.252Z,10.33
2017-08-10T05:12:50.332Z,10.27
2017-08-10T05:15:18.612Z,9.00
2017-08-10T05:17:46.902Z,10.17
2017-08-10T05:20:15.951Z,10.40
2017-08-10T05:22:44.250Z,9.60
2017-08-10T05:25:12.556Z,9.20
2017-08-10T05:27:41.619Z,7.93
2017-08-10T05:30:09.881Z,8.00
2017-08-10T05:32:38.194Z,8.83
2017-08-10T05:35:06.443Z,8.93
2017-08-10T05:37:34.839Z,9.20
2017-08-10T05:40:03.170Z,8.70
2017-08-10T05:42:31.531Z,8.03
2017-08-10T05:44:59.925Z,8.83
2017-08-10T05:47:28.186Z,7.63
2017-08-10T05:49:56.506Z,8.00
2017-08-10T05:52:25.545Z,10.63
2017-08-10T05:54:53.849Z,8.60
2017-08-10T05:57:22.130Z,9.37
2017-08-10T05:59:50.451Z,7.73
2017-08-10T06:02:18.773Z,8.10
2017-08-10T06:04:47.057Z,7.60
2017-08-10T06:07:15.318Z,7.63
2017-08-10T06:09:43.608Z,8.27
2017-08-10T06:12:11.884Z,6.90
2017-08-10T06:14:40.270Z,7.90
2017-08-10T06:17:08.663Z,8.30
2017-08-10T06:19:37.749Z,7.90
2017-08-10T06:22:06.127Z,8.27
2017-08-10T06:24:34.510Z,9.43
2017-08-10T06:27:02.791Z,8.50
2017-08-10T06:29:31.050Z,8.00
2017-08-10T06:31:59.325Z,8.67
2017-08-10T06:34:27.611Z,9.30
2017-08-10T06:36:55.921Z,8.30
2017-08-10T06:39:24.938Z,7.67
2017-08-10T06:41:53.266Z,8.70
2017-08-10T06:44:21.538Z,8.10
2017-08-10T06:46:49.841Z,7.50
2017-08-10T06:49:18.877Z,7.43
2017-08-10T06:51:47.154Z,7.20
2017-08-10T06:54:15.554Z,8.10
2017-08-10T06:56:43.841Z,7.97
2017-08-10T06:59:12.096Z,8.00
2017-08-10T07:01:40.369Z,7.70
2017-08-10T07:04:08.660Z,7.57
2017-08-10T07:06:36.955Z,8.20
2017-08-10T07:09:05.330Z,7.97
2017-08-10T07:11:33.598Z,7.77
2017-08-10T07:14:01.913Z,8.43
2017-08-10T07:16:30.975Z,8.10
2017-08-10T07:18:59.345Z,7.80
2017-08-10T07:21:27.666Z,8.10
2017-08-10T07:23:56.828Z,8.77
2017-08-10T07:26:25.121Z,7.93
2017-08-10T07:28:53.481Z,8.43
2017-08-10T07:31:21.742Z,8.37
2017-08-10T07:33:50.032Z,8.77
2017-08-10T07:36:18.300Z,8.70
2017-08-10T07:38:46.582Z,7.17
2017-08-10T07:41:14.863Z,8.43
2017-08-10T07:43:43.244Z,9.60
2017-08-10T07:46:11.620Z,9.10
2017-08-10T07:48:40.001Z,8.10
2017-08-10T07:51:08.286Z,8.43
2017-08-10T07:53:36.559Z,8.37
2017-08-10T07:56:04.867Z,8.90
2017-08-10T07:58:33.942Z,9.57
2017-08-10T08:01:02.242Z,9.67
2017-08-10T08:03:31.321Z,9.77
2017-08-10T08:05:59.596Z,8.90
2017-08-10T08:08:27.871Z,9.53
2017-08-10T08:10:56.186Z,8.07
2017-08-10T08:13:24.515Z,9.00
2017-08-10T08:15:52.795Z,8.93
2017-08-10T08:18:21.066Z,7.60
2017-08-10T08:20:49.353Z,8.20
2017-08-10T08:23:17.735Z,8.17
2017-08-10T08:25:45.984Z,7.87
2017-08-10T08:28:14.390Z,7.40
2017-08-10T08:30:42.654Z,8.57
2017-08-10T08:33:10.942Z,7.27
2017-08-10T08:35:39.214Z,8.20
2017-08-10T08:38:07.497Z,7.77
2017-08-10T08:40:35.760Z,7.97
2017-08-10T08:43:04.035Z,7.20
2017-08-10T08:45:32.304Z,7.87
2017-08-10T08:48:00.593Z,8.00
2017-08-10T08:50:28.860Z,7.10
2017-08-10T08:52:57.143Z,7.03
2017-08-10T08:55:25.426Z,7.60
2017-08-10T08:57:53.744Z,6.87
2017-08-10T09:00:22.787Z,6.90
2017-08-10T09:02:51.064Z,6.30
2017-08-10T09:05:19.358Z,6.50
2017-08-10T09:07:47.615Z,6.13
2017-08-10T09:10:15.997Z,6.53
2017-08-10T09:12:44.288Z,6.30
2017-08-10T09:15:12.567Z,6.23
2017-08-10T09:17:40.951Z,5.80
2017-08-10T09:20:09.313Z,7.03
2017-08-10T09:22:37.604Z,5.70
2017-08-10T09:25:05.885Z,7.03
2017-08-10T09:27:34.149Z,7.40
2017-08-10T09:30:02.538Z,6.10
2017-08-10T09:32:30.907Z,7.33
2017-08-10T09:34:59.176Z,7.03
2017-08-10T09:37:27.432Z,6.50
2017-08-10T09:39:55.719Z,6.20
2017-08-10T09:42:24.009Z,6.90
2017-08-10T09:44:52.269Z,6.57
2017-08-10T09:47:20.562Z,6.43
2017-08-10T09:49:48.857Z,5.63
2017-08-10T09:52:17.229Z,6.10
2017-08-10T09:54:45.523Z,5.00
2017-08-10T09:57:13.820Z,5.33
2017-08-10T09:59:42.872Z,5.50
2017-08-10T10:02:11.272Z,5.00
2017-08-10T10:04:39.637Z,8.00
2017-08-10T10:07:08.040Z,5.27
2017-08-10T10:09:36.300Z,4.53
2017-08-10T10:12:04.688Z,5.17
2017-08-10T10:14:32.954Z,5.27
2017-08-10T10:17:01.339Z,4.90
2017-08-10T10:19:29.615Z,5.13
2017-08-10T10:21:57.981Z,5.27
2017-08-10T10:24:26.405Z,4.83
2017-08-10T10:26:55.469Z,4.60
2017-08-10T10:29:23.756Z,4.77
2017-08-10T10:31:52.018Z,4.50
2017-08-10T10:34:21.121Z,4.37
2017-08-10T10:36:50.254Z,4.00
2017-08-10T10:39:18.590Z,4.10
2017-08-10T10:41:46.863Z,4.73
2017-08-10T10:44:15.242Z,5.43
2017-08-10T10:46:43.506Z,4.23
2017-08-10T10:49:11.815Z,4.13
2017-08-10T10:51:40.086Z,3.83
2017-08-10T10:54:08.373Z,4.00
2017-08-10T10:56:37.451Z,4.47
2017-08-10T10:59:05.811Z,4.30
2017-08-10T11:01:34.225Z,3.70
2017-08-10T11:04:02.493Z,4.40
2017-08-10T11:06:30.790Z,4.50
2017-08-10T11:08:59.865Z,4.37
2017-08-10T11:11:28.153Z,3.40
2017-08-10T11:13:57.193Z,3.80
2017-08-10T11:16:25.503Z,3.63
2017-08-10T11:18:53.768Z,4.20
2017-08-10T11:21:22.074Z,4.37
2017-08-10T11:23:50.349Z,4.67
2017-08-10T11:26:18.647Z,4.40
2017-08-10T11:28:47.679Z,3.80
2017-08-10T11:31:16.002Z,3.43
2017-08-10T11:33:44.280Z,4.27
2017-08-10T11:36:12.656Z,3.80
2017-08-10T11:38:41.024Z,3.43
2017-08-10T11:41:09.292Z,3.70
2017-08-10T11:43:37.576Z,3.33
2017-08-10T11:46:05.854Z,3.80
2017-08-10T11:48:34.234Z,3.50
2017-08-10T11:51:02.501Z,3.90
2017-08-10T11:53:30.893Z,3.10
2017-08-10T11:55:59.279Z,3.40
2017-08-10T11:58:27.565Z,3.83
2017-08-10T12:00:56.603Z,3.83
2017-08-10T12:03:24.876Z,3.80
2017-08-10T12:05:53.198Z,3.50
2017-08-10T12:08:21.480Z,3.90
2017-08-10T12:10:49.872Z,3.80
2017-08-10T12:13:18.149Z,3.73
2017-08-10T12:15:47.171Z,3.87
2017-08-10T12:18:15.510Z,3.83
2017-08-10T12:20:43.803Z,3.67
2017-08-10T12:23:12.885Z,3.47
2017-08-10T12:25:41.258Z,3.70
2017-08-10T12:28:09.538Z,3.87
2017-08-10T12:30:37.911Z,4.00
2017-08-10T12:33:06.205Z,4.60
2017-08-10T12:35:34.489Z,3.83
2017-08-10T12:38:03.565Z,3.30
2017-08-10T12:40:31.860Z,3.30
2017-08-10T12:43:00.903Z,3.43
2017-08-10T12:45:29.221Z,3.17
2017-08-10T12:47:57.598Z,3.10
2017-08-10T12:50:25.955Z,4.00
2017-08-10T12:52:54.242Z,4.00
2017-08-10T12:55:22.633Z,4.30
2017-08-10T12:57:50.885Z,5.23
2017-08-10T13:00:19.289Z,6.63
2017-08-10T13:02:47.563Z,4.70
2017-08-10T13:05:15.963Z,4.30
2017-08-10T13:07:44.228Z,4.93
2017-08-10T13:10:12.505Z,4.37
2017-08-10T13:12:40.981Z,3.77
2017-08-10T13:15:09.268Z,4.07
2017-08-10T13:17:37.570Z,4.60
2017-08-10T13:20:06.635Z,4.10
2017-08-10T13:22:34.939Z,4.90
2017-08-10T13:25:03.221Z,3.93
2017-08-10T13:27:31.554Z,4.40
2017-08-10T13:29:59.942Z,4.67
2017-08-10T13:32:28.192Z,4.20
2017-08-10T13:34:56.585Z,4.50
2017-08-10T13:37:24.873Z,3.70
2017-08-10T13:39:53.149Z,3.93
2017-08-10T13:42:21.447Z,3.73
2017-08-10T13:44:50.531Z,3.60
2017-08-10T13:47:18.899Z,3.80
2017-08-10T13:49:47.163Z,3.70
2017-08-10T13:52:15.549Z,3.70
2017-08-10T13:54:43.834Z,3.37
2017-08-10T13:57:12.258Z,3.20
2017-08-10T13:59:40.585Z,3.30
2017-08-10T14:02:08.983Z,3.50
2017-08-10T14:04:37.239Z,3.30
2017-08-10T14:07:05.625Z,3.57
2017-08-10T14:09:33.904Z,3.33
2017-08-10T14:12:02.208Z,2.63
2017-08-10T14:14:31.377Z,2.50
2017-08-10T14:16:59.650Z,3.50
2017-08-10T14:19:27.943Z,3.50
2017-08-10T14:21:56.207Z,2.83
2017-08-10T14:24:24.507Z,3.53
2017-08-10T14:26:53.574Z,2.83
2017-08-10T14:29:21.946Z,3.73
2017-08-10T14:31:50.234Z,3.30
2017-08-10T14:34:18.623Z,3.33
2017-08-10T14:36:46.893Z,3.13
2017-08-10T14:39:15.152Z,2.70
2017-08-10T14:41:43.584Z,2.90
2017-08-10T14:44:11.925Z,3.57
2017-08-10T14:46:40.219Z,3.20
2017-08-10T14:49:08.481Z,3.73
2017-08-10T14:51:36.761Z,3.53
2017-08-10T14:54:05.240Z,3.40
2017-08-10T14:56:33.631Z,3.10
2017-08-10T14:59:01.895Z,3.47
2017-08-10T15:01:30.197Z,3.13
2017-08-10T15:03:58.453Z,3.50
2017-08-10T15:06:26.707Z,3.00
2017-08-10T15:08:55.015Z,3.93
2017-08-10T15:11:23.292Z,4.07
2017-08-10T15:13:51.657Z,3.50
2017-08-10T15:16:19.935Z,3.50
2017-08-10T15:18:48.217Z,3.50
2017-08-10T15:21:16.482Z,3.27
2017-08-10T15:23:44.781Z,4.07
2017-08-10T15:26:13.158Z,3.97
2017-08-10T15:28:41.417Z,3.70
2017-08-10T15:31:09.702Z,3.67
2017-08-10T15:33:37.978Z,4.33
2017-08-10T15:36:06.283Z,3.97
2017-08-10T15:38:34.651Z,3.70
2017-08-10T15:41:02.931Z,4.17
2017-08-10T15:43:31.288Z,5.10
2017-08-10T15:45:59.569Z,4.57
2017-08-10T15:48:27.823Z,4.17
2017-08-10T15:50:56.127Z,4.07
2017-08-10T15:53:24.415Z,4.60
2017-08-10T15:55:52.777Z,4.17
2017-08-10T15:58:21.053Z,4.47
2017-08-10T16:00:49.434Z,4.27
2017-08-10T16:03:17.708Z,4.20
2017-08-10T16:05:45.987Z,4.53
2017-08-10T16:08:14.253Z,4.10
2017-08-10T16:10:42.554Z,3.87
2017-08-10T16:13:10.926Z,4.30
2017-08-10T16:15:39.198Z,4.10
2017-08-10T16:18:07.486Z,4.30
2017-08-10T16:20:35.853Z,3.77
2017-08-10T16:23:04.128Z,4.00
2017-08-10T16:25:32.527Z,4.13
2017-08-10T16:28:00.856Z,4.37
2017-08-10T16:30:29.166Z,4.13
2017-08-10T16:32:57.424Z,3.73
2017-08-10T16:35:25.705Z,3.90
2017-08-10T16:37:54.015Z,4.00
2017-08-10T16:40:22.295Z,3.27
2017-08-10T16:42:50.599Z,3.83
2017-08-10T16:45:18.893Z,3.90
2017-08-10T16:47:47.177Z,3.67
2017-08-10T16:50:15.423Z,3.73
2017-08-10T16:52:43.717Z,3.67
2017-08-10T16:55:12.038Z,4.50
2017-08-10T16:57:40.435Z,4.13
2017-08-10T17:00:08.721Z,3.80
2017-08-10T17:02:37.009Z,4.27
2017-08-10T17:05:05.286Z,4.10
2017-08-10T17:07:34.466Z,4.00
2017-08-10T17:10:02.736Z,3.93
2017-08-10T17:12:31.104Z,3.83
2017-08-10T17:14:59.485Z,9.70
2017-08-10T17:17:27.861Z,4.73
2017-08-10T17:19:56.149Z,4.33
2017-08-10T17:22:24.430Z,4.70
2017-08-10T17:24:52.714Z,5.80
2017-08-10T17:27:21.749Z,4.10
2017-08-10T17:29:50.038Z,5.20
2017-08-10T17:32:18.305Z,5.00
2017-08-10T17:34:46.634Z,7.90
2017-08-10T17:37:14.899Z,4.43
2017-08-10T17:39:43.199Z,4.30
2017-08-10T17:42:12.249Z,5.10
2017-08-10T17:44:40.530Z,6.87
2017-08-10T17:47:08.817Z,3.83
2017-08-10T17:49:37.100Z,4.30
2017-08-10T17:52:05.379Z,6.70
2017-08-10T17:54:33.679Z,4.40
2017-08-10T17:57:02.033Z,4.80
2017-08-10T17:59:30.306Z,4.43
2017-08-10T18:01:58.582Z,6.00
2017-08-10T18:04:26.880Z,4.80
2017-08-10T18:06:55.139Z,4.40
2017-08-10T18:09:23.539Z,5.37
2017-08-10T18:11:51.810Z,4.20
2017-08-10T18:14:20.104Z,5.13
2017-08-10T18:16:48.404Z,4.43
2017-08-10T18:19:16.746Z,3.70
2017-08-10T18:21:45.016Z,4.40
2017-08-10T18:24:13.402Z,3.97
2017-08-10T18:26:41.781Z,3.83
2017-08-10T18:29:10.047Z,3.33
2017-08-10T18:31:38.349Z,3.70
2017-08-10T18:34:07.418Z,4.30
2017-08-10T18:36:35.706Z,4.20
2017-08-10T18:39:03.986Z,4.10
2017-08-10T18:41:32.245Z,3.77
2017-08-10T18:44:00.534Z,3.93
2017-08-10T18:46:28.801Z,3.97
2017-08-10T18:48:57.092Z,3.57
2017-08-10T18:51:25.367Z,3.97
2017-08-10T18:53:53.693Z,3.50
2017-08-10T18:56:21.958Z,3.07
2017-08-10T18:58:50.275Z,3.67
2017-08-10T19:01:18.610Z,3.27
2017-08-10T19:03:46.881Z,3.17
2017-08-10T19:06:15.941Z,3.30
2017-08-10T19:08:44.317Z,3.30
2017-08-10T19:11:12.770Z,3.30
2017-08-10T19:13:41.064Z,2.87
2017-08-10T19:16:09.345Z,3.13
2017-08-10T19:18:37.792Z,3.10
2017-08-10T19:21:06.081Z,3.43
2017-08-10T19:23:34.389Z,3.30
2017-08-10T19:26:02.710Z,3.50
2017-08-10T19:28:31.733Z,2.53
2017-08-10T19:31:00.059Z,3.30
2017-08-10T19:33:28.405Z,2.97
2017-08-10T19:35:56.694Z,3.10
2017-08-10T19:38:25.175Z,2.83
2017-08-10T19:40:53.467Z,2.97
2017-08-10T19:43:21.765Z,3.17
2017-08-10T19:45:50.816Z,3.30
2017-08-10T19:48:19.192Z,2.73
2017-08-10T19:50:47.471Z,3.20
2017-08-10T19:53:15.748Z,2.83
2017-08-10T19:55:44.025Z,3.37
2017-08-10T19:58:12.284Z,3.07
2017-08-10T20:00:40.569Z,3.20
2017-08-10T20:03:08.886Z,3.40
2017-08-10T20:05:37.187Z,3.40
2017-08-10T20:08:06.213Z,3.20
2017-08-10T20:10:34.488Z,3.50
2017-08-10T20:13:02.904Z,3.30
2017-08-10T20:15:31.278Z,2.57
2017-08-10T20:17:59.550Z,2.70
2017-08-10T20:20:27.830Z,3.00
2017-08-10T20:22:56.121Z,3.17
2017-08-10T20:25:24.372Z,3.00
2017-08-10T20:27:52.699Z,3.00
2017-08-10T20:30:21.745Z,3.13
2017-08-10T20:32:50.014Z,2.93
2017-08-10T20:35:18.324Z,3.23
2017-08-10T20:37:46.589Z,2.80
2017-08-10T20:40:14.863Z,3.27
2017-08-10T20:42:43.129Z,2.87
2017-08-10T20:45:11.428Z,2.80
2017-08-10T20:47:39.745Z,2.63
2017-08-10T20:50:08.884Z,3.40
2017-08-10T20:52:37.183Z,3.67
2017-08-10T20:55:05.454Z,3.13
2017-08-10T20:57:33.818Z,3.77
2017-08-10T21:00:02.209Z,2.80
2017-08-10T21:02:30.503Z,2.60
2017-08-10T21:04:58.866Z,2.90
2017-08-10T21:07:27.239Z,2.93
2017-08-10T21:09:55.488Z,3.37
2017-08-10T21:12:24.518Z,3.17
2017-08-10T21:14:52.803Z,2.93
2017-08-10T21:17:21.138Z,3.17
2017-08-10T21:19:49.399Z,3.33
2017-08-10T21:22:17.851Z,3.20
2017-08-10T21:24:46.914Z,3.43
2017-08-10T21:27:15.202Z,3.17
2017-08-10T21:29:43.581Z,2.90
2017-08-10T21:32:12.179Z,3.17
2017-08-10T21:34:40.546Z,3.00
2017-08-10T21:37:08.822Z,3.00
2017-08-10T21:39:37.121Z,3.40
2017-08-10T21:42:06.219Z,3.40
2017-08-10T21:44:35.266Z,3.20
2017-08-10T21:47:03.541Z,2.87
2017-08-10T21:49:31.849Z,3.33
2017-08-10T21:52:00.145Z,3.00
2017-08-10T21:54:29.198Z,2.87
2017-08-10T21:56:57.542Z,2.60
2017-08-10T21:59:26.571Z,3.17
2017-08-10T22:01:56.067Z,3.50
2017-08-10T22:04:24.537Z,3.97
2017-08-10T22:06:52.869Z,3.00
2017-08-10T22:09:21.163Z,3.50
2017-08-10T22:11:50.189Z,4.20
2017-08-10T22:14:18.473Z,3.50
2017-08-10T22:16:46.735Z,4.60
2017-08-10T22:19:15.008Z,4.90
2017-08-10T22:21:43.272Z,5.20
2017-08-10T22:24:11.659Z,4.10
2017-08-10T22:26:40.009Z,4.57
2017-08-10T22:29:08.322Z,5.03
2017-08-10T22:31:36.650Z,4.60
2017-08-10T22:34:04.913Z,5.47
2017-08-10T22:36:33.288Z,5.07
2017-08-10T22:39:01.588Z,4.20
2017-08-10T22:41:29.959Z,5.10
2017-08-10T22:43:58.250Z,4.50
2017-08-10T22:46:26.520Z,4.57
2017-08-10T22:48:54.788Z,4.60
2017-08-10T22:51:23.087Z,4.77
2017-08-10T22:53:51.363Z,4.03
2017-08-10T22:56:19.683Z,4.50
2017-08-10T22:58:47.966Z,4.50
2017-08-10T23:01:17.744Z,4.40
2017-08-10T23:03:46.051Z,3.90
2017-08-10T23:06:14.421Z,5.30
2017-08-10T23:08:42.722Z,4.90
2017-08-10T23:11:11.822Z,5.07
2017-08-10T23:13:40.877Z,4.47
2017-08-10T23:16:09.142Z,5.20
2017-08-10T23:18:37.422Z,4.80
2017-08-10T23:21:05.725Z,4.33
2017-08-10T23:23:34.007Z,5.40
2017-08-10T23:26:02.283Z,4.90
2017-08-10T23:28:30.565Z,5.07
2017-08-10T23:30:59.035Z,5.20
2017-08-10T23:33:27.724Z,5.97
2017-08-10T23:35:56.104Z,6.23
2017-08-10T23:38:24.493Z,5.90
2017-08-10T23:40:52.860Z,6.30
2017-08-10T23:43:21.272Z,5.70
2017-08-10T23:45:50.348Z,5.43
2017-08-10T23:48:18.637Z,6.03
2017-08-10T23:50:47.734Z,6.27
2017-08-10T23:53:16.094Z,6.20
2017-08-10T23:55:44.349Z,6.53
2017-08-10T23:58:12.749Z,7.10
